sensor_id;sensor_type;location;lat;lon;timestamp;pressure;altitude;pressure_sealevel;temperature;humidity
79589;BME280;69067;51.930;4.492;2023-09-19T00:01:34;100667.09;;;27.41;39.73
79589;BME280;69067;51.930;4.492;2023-09-19T00:03:59;100665.44;;;27.40;39.93
79589;BME280;69067;51.930;4.492;2023-09-19T00:06:29;100672.94;;;27.44;39.98
79589;BME280;69067;51.930;4.492;2023-09-19T00:08:57;100670.91;;;27.40;39.89
79589;BME280;69067;51.930;4.492;2023-09-19T00:11:28;100661.28;;;27.37;39.51
79589;BME280;69067;51.930;4.492;2023-09-19T00:13:54;100667.00;;;27.36;39.75
79589;BME280;69067;51.930;4.492;2023-09-19T00:16:20;100668.41;;;27.38;39.73
79589;BME280;69067;51.930;4.492;2023-09-19T00:18:46;100672.22;;;27.37;39.58
79589;BME280;69067;51.930;4.492;2023-09-19T00:21:14;100673.31;;;27.36;39.57
79589;BME280;69067;51.930;4.492;2023-09-19T00:23:40;100684.81;;;27.38;39.71
79589;BME280;69067;51.930;4.492;2023-09-19T00:26:06;100682.91;;;27.39;39.62
79589;BME280;69067;51.930;4.492;2023-09-19T00:28:32;100684.00;;;27.38;39.86
79589;BME280;69067;51.930;4.492;2023-09-19T00:30:58;100691.13;;;27.39;39.78
79589;BME280;69067;51.930;4.492;2023-09-19T00:33:27;100686.59;;;27.33;39.57
79589;BME280;69067;51.930;4.492;2023-09-19T00:35:56;100687.44;;;27.33;39.67
79589;BME280;69067;51.930;4.492;2023-09-19T00:38:23;100687.44;;;27.33;39.67
79589;BME280;69067;51.930;4.492;2023-09-19T00:40:55;100687.44;;;27.33;40.20
79589;BME280;69067;51.930;4.492;2023-09-19T00:43:22;100699.81;;;27.36;40.36
79589;BME280;69067;51.930;4.492;2023-09-19T00:45:52;100694.22;;;27.31;39.71
79589;BME280;69067;51.930;4.492;2023-09-19T00:48:20;100692.91;;;27.33;40.55
79589;BME280;69067;51.930;4.492;2023-09-19T00:50:48;100691.00;;;27.34;40.00
79589;BME280;69067;51.930;4.492;2023-09-19T00:53:19;100695.88;;;27.32;40.15
79589;BME280;69067;51.930;4.492;2023-09-19T00:55:48;100694.81;;;27.33;40.04
79589;BME280;69067;51.930;4.492;2023-09-19T00:58:16;100701.34;;;27.32;40.04
79589;BME280;69067;51.930;4.492;2023-09-19T01:00:44;100696.69;;;27.32;40.16
79589;BME280;69067;51.930;4.492;2023-09-19T01:03:10;100702.44;;;27.31;39.91
79589;BME280;69067;51.930;4.492;2023-09-19T01:05:39;100709.78;;;27.30;40.34
79589;BME280;69067;51.930;4.492;2023-09-19T01:08:05;100716.09;;;27.31;39.96
79589;BME280;69067;51.930;4.492;2023-09-19T01:10:33;100726.19;;;27.30;39.41
79589;BME280;69067;51.930;4.492;2023-09-19T01:13:26;100711.94;;;27.28;40.49
79589;BME280;69067;51.930;4.492;2023-09-19T01:18:47;100716.56;;;27.28;39.77
79589;BME280;69067;51.930;4.492;2023-09-19T01:21:40;100710.03;;;27.29;39.63
79589;BME280;69067;51.930;4.492;2023-09-19T01:30:14;100707.75;;;27.26;39.80
79589;BME280;69067;51.930;4.492;2023-09-19T01:32:43;100715.72;;;27.27;40.29
79589;BME280;69067;51.930;4.492;2023-09-19T01:35:09;100714.88;;;27.27;40.44
79589;BME280;69067;51.930;4.492;2023-09-19T01:37:38;100713.81;;;27.28;40.22
79589;BME280;69067;51.930;4.492;2023-09-19T01:40:07;100717.41;;;27.28;40.20
79589;BME280;69067;51.930;4.492;2023-09-19T01:42:59;100712.38;;;27.25;40.59
79589;BME280;69067;51.930;4.492;2023-09-19T01:45:49;100704.19;;;27.25;39.82
79589;BME280;69067;51.930;4.492;2023-09-19T01:51:53;100718.22;;;27.29;40.01
79589;BME280;69067;51.930;4.492;2023-09-19T01:54:31;100718.22;;;27.29;40.65
79589;BME280;69067;51.930;4.492;2023-09-19T01:57:10;100712.66;;;27.24;39.78
79589;BME280;69067;51.930;4.492;2023-09-19T01:59:48;100713.22;;;27.26;39.97
79589;BME280;69067;51.930;4.492;2023-09-19T02:02:17;100708.25;;;27.23;40.28
79589;BME280;69067;51.930;4.492;2023-09-19T02:04:48;100717.00;;;27.25;39.99
79589;BME280;69067;51.930;4.492;2023-09-19T02:07:16;100723.09;;;27.27;40.36
79589;BME280;69067;51.930;4.492;2023-09-19T02:09:42;100719.19;;;27.23;40.04
79589;BME280;69067;51.930;4.492;2023-09-19T02:12:11;100714.41;;;27.18;40.34
79589;BME280;69067;51.930;4.492;2023-09-19T02:14:36;100712.66;;;27.24;39.84
79589;BME280;69067;51.930;4.492;2023-09-19T02:17:03;100709.91;;;27.24;40.39
79589;BME280;69067;51.930;4.492;2023-09-19T02:19:33;100710.13;;;27.22;39.93
79589;BME280;69067;51.930;4.492;2023-09-19T02:22:00;100701.72;;;27.24;40.01
79589;BME280;69067;51.930;4.492;2023-09-19T02:24:28;100709.06;;;27.23;39.86
79589;BME280;69067;51.930;4.492;2023-09-19T02:26:54;100718.69;;;27.26;40.50
79589;BME280;69067;51.930;4.492;2023-09-19T02:29:21;100718.69;;;27.26;40.34
79589;BME280;69067;51.930;4.492;2023-09-19T02:31:47;100725.22;;;27.25;40.68
79589;BME280;69067;51.930;4.492;2023-09-19T02:34:13;100714.16;;;27.20;40.14
79589;BME280;69067;51.930;4.492;2023-09-19T02:36:39;100721.31;;;27.21;40.13
79589;BME280;69067;51.930;4.492;2023-09-19T02:39:05;100726.53;;;27.22;40.16
79589;BME280;69067;51.930;4.492;2023-09-19T02:41:31;100730.34;;;27.21;39.60
79589;BME280;69067;51.930;4.492;2023-09-19T02:43:58;100729.28;;;27.22;39.47
79589;BME280;69067;51.930;4.492;2023-09-19T02:46:24;100729.50;;;27.21;39.91
79589;BME280;69067;51.930;4.492;2023-09-19T02:48:50;100723.19;;;27.20;39.71
79589;BME280;69067;51.930;4.492;2023-09-19T02:51:16;100715.84;;;27.21;40.09
79589;BME280;69067;51.930;4.492;2023-09-19T02:53:41;100717.97;;;27.19;39.88
79589;BME280;69067;51.930;4.492;2023-09-19T02:56:07;100720.25;;;27.22;40.44
79589;BME280;69067;51.930;4.492;2023-09-19T02:58:34;100716.66;;;27.21;40.30
79589;BME280;69067;51.930;4.492;2023-09-19T03:01:08;100714.16;;;27.20;39.89
79589;BME280;69067;51.930;4.492;2023-09-19T03:03:36;100718.34;;;27.22;40.18
79589;BME280;69067;51.930;4.492;2023-09-19T03:06:05;100716.06;;;27.19;39.84
79589;BME280;69067;51.930;4.492;2023-09-19T03:08:35;100722.97;;;27.22;39.75
79589;BME280;69067;51.930;4.492;2023-09-19T03:11:08;100724.03;;;27.21;40.14
79589;BME280;69067;51.930;4.492;2023-09-19T03:13:37;100722.38;;;27.20;40.00
79589;BME280;69067;51.930;4.492;2023-09-19T03:16:06;100728.91;;;27.19;39.73
79589;BME280;69067;51.930;4.492;2023-09-19T03:18:34;100723.44;;;27.19;40.22
79589;BME280;69067;51.930;4.492;2023-09-19T03:21:00;100736.88;;;27.20;39.80
79589;BME280;69067;51.930;4.492;2023-09-19T03:23:27;100729.16;;;27.17;39.68
79589;BME280;69067;51.930;4.492;2023-09-19T03:25:56;100732.13;;;27.16;40.33
79589;BME280;69067;51.930;4.492;2023-09-19T03:28:22;100734.38;;;27.19;39.62
79589;BME280;69067;51.930;4.492;2023-09-19T03:30:59;100730.56;;;27.20;39.44
79589;BME280;69067;51.930;4.492;2023-09-19T03:33:26;100734.38;;;27.19;40.06
79589;BME280;69067;51.930;4.492;2023-09-19T03:35:53;100731.28;;;27.15;39.91
79589;BME280;69067;51.930;4.492;2023-09-19T03:38:20;100713.09;;;27.09;40.29
79589;BME280;69067;51.930;4.492;2023-09-19T03:40:47;100722.59;;;27.18;39.64
79589;BME280;69067;51.930;4.492;2023-09-19T03:43:14;100717.38;;;27.17;40.20
79589;BME280;69067;51.930;4.492;2023-09-19T03:45:40;100721.19;;;27.16;39.75
79589;BME280;69067;51.930;4.492;2023-09-19T03:48:10;100738.66;;;27.15;40.59
79589;BME280;69067;51.930;4.492;2023-09-19T03:50:36;100739.47;;;27.15;40.28
79589;BME280;69067;51.930;4.492;2023-09-19T03:53:03;100734.72;;;27.11;40.25
79589;BME280;69067;51.930;4.492;2023-09-19T03:55:29;100743.06;;;27.16;40.03
79589;BME280;69067;51.930;4.492;2023-09-19T03:58:03;100750.03;;;27.12;39.81
79589;BME280;69067;51.930;4.492;2023-09-19T04:00:29;100748.53;;;27.16;40.00
79589;BME280;69067;51.930;4.492;2023-09-19T04:02:55;100752.31;;;27.15;40.13
79589;BME280;69067;51.930;4.492;2023-09-19T04:05:24;100739.47;;;27.15;40.26
79589;BME280;69067;51.930;4.492;2023-09-19T04:07:50;100747.47;;;27.17;39.74
79589;BME280;69067;51.930;4.492;2023-09-19T04:10:16;100759.91;;;27.13;39.89
79589;BME280;69067;51.930;4.492;2023-09-19T04:12:52;100769.56;;;27.15;40.06
79589;BME280;69067;51.930;4.492;2023-09-19T04:15:19;100765.38;;;27.13;39.53
79589;BME280;69067;51.930;4.492;2023-09-19T04:17:48;100763.47;;;27.13;40.03
79589;BME280;69067;51.930;4.492;2023-09-19T04:20:16;100768.13;;;27.13;40.10
79589;BME280;69067;51.930;4.492;2023-09-19T04:22:45;100766.22;;;27.13;40.49
79589;BME280;69067;51.930;4.492;2023-09-19T04:25:12;100766.44;;;27.12;40.28
79589;BME280;69067;51.930;4.492;2023-09-19T04:27:38;100766.22;;;27.13;40.29
79589;BME280;69067;51.930;4.492;2023-09-19T04:30:05;100764.31;;;27.14;40.18
79589;BME280;69067;51.930;4.492;2023-09-19T04:32:35;100780.09;;;27.12;40.02
79589;BME280;69067;51.930;4.492;2023-09-19T04:35:02;100763.72;;;27.12;40.50
79589;BME280;69067;51.930;4.492;2023-09-19T04:37:31;100771.69;;;27.13;40.24
79589;BME280;69067;51.930;4.492;2023-09-19T04:39:57;100773.56;;;27.13;40.52
79589;BME280;69067;51.930;4.492;2023-09-19T04:42:22;100779.28;;;27.11;39.99
79589;BME280;69067;51.930;4.492;2023-09-19T04:44:50;100774.63;;;27.12;40.38
79589;BME280;69067;51.930;4.492;2023-09-19T04:47:19;100778.69;;;27.09;39.64
79589;BME280;69067;51.930;4.492;2023-09-19T04:49:44;100787.25;;;27.13;40.17
79589;BME280;69067;51.930;4.492;2023-09-19T04:52:10;100784.16;;;27.09;40.52
79589;BME280;69067;51.930;4.492;2023-09-19T04:54:36;100783.31;;;27.09;40.44
79589;BME280;69067;51.930;4.492;2023-09-19T04:57:03;100780.22;;;27.05;39.93
79589;BME280;69067;51.930;4.492;2023-09-19T04:59:31;100776.63;;;27.04;40.48
79589;BME280;69067;51.930;4.492;2023-09-19T05:01:56;100776.19;;;27.08;40.75
79589;BME280;69067;51.930;4.492;2023-09-19T05:04:22;100782.09;;;27.04;39.73
79589;BME280;69067;51.930;4.492;2023-09-19T05:06:48;100784.84;;;27.04;40.05
79589;BME280;69067;51.930;4.492;2023-09-19T05:09:13;100781.88;;;27.06;39.94
79589;BME280;69067;51.930;4.492;2023-09-19T05:11:41;100795.78;;;27.04;40.41
79589;BME280;69067;51.930;4.492;2023-09-19T05:14:06;100788.19;;;27.07;39.37
79589;BME280;69067;51.930;4.492;2023-09-19T05:16:32;100790.56;;;27.03;40.18
79589;BME280;69067;51.930;4.492;2023-09-19T05:18:58;100781.03;;;27.05;40.15
79589;BME280;69067;51.930;4.492;2023-09-19T05:21:29;100781.28;;;27.04;40.07
79589;BME280;69067;51.930;4.492;2023-09-19T05:23:56;100785.44;;;27.07;39.58
79589;BME280;69067;51.930;4.492;2023-09-19T05:26:22;100781.75;;;27.01;39.73
79589;BME280;69067;51.930;4.492;2023-09-19T05:28:48;100779.25;;;26.99;40.15
79589;BME280;69067;51.930;4.492;2023-09-19T05:31:14;100775.00;;;27.03;40.29
79589;BME280;69067;51.930;4.492;2023-09-19T05:33:40;100764.66;;;27.05;39.37
79589;BME280;69067;51.930;4.492;2023-09-19T05:36:06;100776.63;;;27.04;39.71
79589;BME280;69067;51.930;4.492;2023-09-19T05:38:33;100761.34;;;27.03;39.32
79589;BME280;69067;51.930;4.492;2023-09-19T05:40:58;100777.25;;;27.07;39.95
79589;BME280;69067;51.930;4.492;2023-09-19T05:43:24;100764.53;;;27.00;40.04
79589;BME280;69067;51.930;4.492;2023-09-19T05:45:49;100774.16;;;27.03;39.27
79589;BME280;69067;51.930;4.492;2023-09-19T05:48:17;100776.63;;;27.04;39.81
79589;BME280;69067;51.930;4.492;2023-09-19T05:50:43;100791.13;;;27.05;40.13
79589;BME280;69067;51.930;4.492;2023-09-19T05:53:12;100791.84;;;27.00;39.92
79589;BME280;69067;51.930;4.492;2023-09-19T05:55:40;100777.66;;;26.92;39.74
79589;BME280;69067;51.930;4.492;2023-09-19T05:58:06;100793.63;;;26.95;39.88
79589;BME280;69067;51.930;4.492;2023-09-19T06:00:32;100796.13;;;26.96;40.00
79589;BME280;69067;51.930;4.492;2023-09-19T06:02:59;100801.59;;;26.96;40.13
79589;BME280;69067;51.930;4.492;2023-09-19T06:05:26;100805.13;;;26.97;39.68
79589;BME280;69067;51.930;4.492;2023-09-19T06:07:53;100803.22;;;26.97;40.37
79589;BME280;69067;51.930;4.492;2023-09-19T06:10:20;100805.38;;;26.95;40.09
79589;BME280;69067;51.930;4.492;2023-09-19T06:12:49;100802.50;;;26.90;39.99
79589;BME280;69067;51.930;4.492;2023-09-19T06:15:15;100813.59;;;26.95;40.37
79589;BME280;69067;51.930;4.492;2023-09-19T06:17:54;100805.13;;;26.97;40.16
79589;BME280;69067;51.930;4.492;2023-09-19T06:20:24;100804.16;;;26.91;40.26
79589;BME280;69067;51.930;4.492;2023-09-19T06:22:52;100800.97;;;26.94;39.85
79589;BME280;69067;51.930;4.492;2023-09-19T06:25:19;100804.16;;;26.91;39.87
79589;BME280;69067;51.930;4.492;2023-09-19T06:27:49;100808.56;;;26.92;40.16
79589;BME280;69067;51.930;4.492;2023-09-19T06:30:20;100815.69;;;26.93;40.24
79589;BME280;69067;51.930;4.492;2023-09-19T06:32:48;100806.91;;;26.91;40.42
79589;BME280;69067;51.930;4.492;2023-09-19T06:35:15;100816.31;;;26.95;40.54
79589;BME280;69067;51.930;4.492;2023-09-19T06:37:42;100812.53;;;26.96;39.91
79589;BME280;69067;51.930;4.492;2023-09-19T06:40:13;100803.31;;;26.91;40.31
79589;BME280;69067;51.930;4.492;2023-09-19T06:42:47;100813.81;;;26.94;40.53
79589;BME280;69067;51.930;4.492;2023-09-19T06:45:16;100828.31;;;26.94;40.43
79589;BME280;69067;51.930;4.492;2023-09-19T06:47:45;100815.47;;;26.95;39.36
79589;BME280;69067;51.930;4.492;2023-09-19T06:50:20;100819.06;;;26.95;39.67
79589;BME280;69067;51.930;4.492;2023-09-19T06:52:49;100807.06;;;26.96;39.31
79589;BME280;69067;51.930;4.492;2023-09-19T06:55:21;100811.91;;;26.94;39.50
79589;BME280;69067;51.930;4.492;2023-09-19T06:57:50;100812.75;;;26.95;39.34
79589;BME280;69067;51.930;4.492;2023-09-19T07:00:16;100827.00;;;26.97;39.60
79589;BME280;69067;51.930;4.492;2023-09-19T07:03:04;100818.34;;;27.00;39.23
79589;BME280;69067;51.930;4.492;2023-09-19T07:05:36;100820.84;;;27.01;38.71
79589;BME280;69067;51.930;4.492;2023-09-19T07:08:03;100824.88;;;26.99;38.86
79589;BME280;69067;51.930;4.492;2023-09-19T07:10:30;100817.28;;;27.01;38.61
79589;BME280;69067;51.930;4.492;2023-09-19T07:13:05;100821.06;;;27.00;38.70
79589;BME280;69067;51.930;4.492;2023-09-19T07:15:34;100817.06;;;27.02;38.61
79589;BME280;69067;51.930;4.492;2023-09-19T07:18:02;100814.78;;;26.99;38.93
79589;BME280;69067;51.930;4.492;2023-09-19T07:20:28;100827.59;;;26.99;39.25
79589;BME280;69067;51.930;4.492;2023-09-19T07:22:57;100822.34;;;26.97;38.86
79589;BME280;69067;51.930;4.492;2023-09-19T07:25:27;100819.06;;;26.95;38.36
79589;BME280;69067;51.930;4.492;2023-09-19T07:27:55;100825.09;;;26.97;38.73
79589;BME280;69067;51.930;4.492;2023-09-19T07:30:27;100816.91;;;26.97;38.52
79589;BME280;69067;51.930;4.492;2023-09-19T07:32:53;100824.25;;;26.97;38.71
79589;BME280;69067;51.930;4.492;2023-09-19T07:35:19;100826.03;;;26.91;38.72
79589;BME280;69067;51.930;4.492;2023-09-19T07:37:50;100818.88;;;26.90;37.93
79589;BME280;69067;51.930;4.492;2023-09-19T07:40:18;100829.38;;;26.93;38.52
79589;BME280;69067;51.930;4.492;2023-09-19T07:42:44;100824.97;;;26.92;39.11
79589;BME280;69067;51.930;4.492;2023-09-19T07:45:12;100826.63;;;26.93;38.33
79589;BME280;69067;51.930;4.492;2023-09-19T07:47:49;100830.72;;;26.84;38.76
79589;BME280;69067;51.930;4.492;2023-09-19T07:50:17;100820.16;;;26.88;38.91
79589;BME280;69067;51.930;4.492;2023-09-19T07:52:48;100825.84;;;26.86;38.71
79589;BME280;69067;51.930;4.492;2023-09-19T07:55:16;100819.34;;;26.87;38.23
79589;BME280;69067;51.930;4.492;2023-09-19T07:57:43;100831.09;;;26.88;38.09
79589;BME280;69067;51.930;4.492;2023-09-19T08:00:09;100803.88;;;26.81;38.37
79589;BME280;69067;51.930;4.492;2023-09-19T08:02:38;100823.97;;;26.87;38.31
79589;BME280;69067;51.930;4.492;2023-09-19T08:05:04;100831.31;;;26.86;38.33
79589;BME280;69067;51.930;4.492;2023-09-19T08:07:36;100824.34;;;26.90;38.23
79589;BME280;69067;51.930;4.492;2023-09-19T08:10:04;100830.72;;;26.84;38.10
79589;BME280;69067;51.930;4.492;2023-09-19T08:12:30;100824.19;;;26.85;38.17
79589;BME280;69067;51.930;4.492;2023-09-19T08:14:56;100809.78;;;26.78;38.84
79589;BME280;69067;51.930;4.492;2023-09-19T08:17:22;100815.25;;;26.78;38.28
79589;BME280;69067;51.930;4.492;2023-09-19T08:19:48;100799.69;;;26.79;38.38
79589;BME280;69067;51.930;4.492;2023-09-19T08:22:21;100806.38;;;26.83;38.60
79589;BME280;69067;51.930;4.492;2023-09-19T08:24:47;100813.34;;;26.79;38.68
79589;BME280;69067;51.930;4.492;2023-09-19T08:27:13;100793.38;;;26.78;38.56
79589;BME280;69067;51.930;4.492;2023-09-19T08:29:38;100795.50;;;26.76;38.84
79589;BME280;69067;51.930;4.492;2023-09-19T08:32:04;100799.31;;;26.75;38.52
79589;BME280;69067;51.930;4.492;2023-09-19T08:34:30;100807.25;;;26.77;38.41
79589;BME280;69067;51.930;4.492;2023-09-19T08:36:59;100799.06;;;26.77;38.46
79589;BME280;69067;51.930;4.492;2023-09-19T08:39:25;100787.41;;;26.70;38.78
79589;BME280;69067;51.930;4.492;2023-09-19T08:42:01;100804.19;;;26.73;39.10
79589;BME280;69067;51.930;4.492;2023-09-19T08:44:27;100807.25;;;26.77;39.02
79589;BME280;69067;51.930;4.492;2023-09-19T08:47:09;100792.63;;;26.71;38.98
79589;BME280;69067;51.930;4.492;2023-09-19T08:50:14;100799.69;;;26.79;38.25
79589;BME280;69067;51.930;4.492;2023-09-19T08:52:47;100804.19;;;26.73;39.00
79589;BME280;69067;51.930;4.492;2023-09-19T08:55:15;100796.34;;;26.77;38.84
79589;BME280;69067;51.930;4.492;2023-09-19T08:57:49;100811.31;;;26.74;38.62
79589;BME280;69067;51.930;4.492;2023-09-19T09:00:17;100806.38;;;26.64;38.99
79589;BME280;69067;51.930;4.492;2023-09-19T09:02:44;100806.59;;;26.63;38.59
79589;BME280;69067;51.930;4.492;2023-09-19T09:05:11;100799.03;;;26.65;38.88
79589;BME280;69067;51.930;4.492;2023-09-19T09:07:43;100803.88;;;26.63;38.60
79589;BME280;69067;51.930;4.492;2023-09-19T09:10:10;100799.41;;;26.69;38.70
79589;BME280;69067;51.930;4.492;2023-09-19T09:12:35;100811.41;;;26.67;38.36
79589;BME280;69067;51.930;4.492;2023-09-19T09:15:06;100808.28;;;26.64;39.01
79589;BME280;69067;51.930;4.492;2023-09-19T09:17:34;100799.50;;;26.62;38.44
79589;BME280;69067;51.930;4.492;2023-09-19T09:20:00;100812.06;;;26.63;38.30
79589;BME280;69067;51.930;4.492;2023-09-19T09:22:25;100805.84;;;26.56;39.07
79589;BME280;69067;51.930;4.492;2023-09-19T09:24:58;100811.00;;;26.64;38.31
79589;BME280;69067;51.930;4.492;2023-09-19T09:27:29;100794.94;;;26.56;38.97
79589;BME280;69067;51.930;4.492;2023-09-19T09:29:55;100796.50;;;26.63;38.45
79589;BME280;69067;51.930;4.492;2023-09-19T09:32:29;100806.47;;;26.58;38.67
79589;BME280;69067;51.930;4.492;2023-09-19T09:35:01;100800.41;;;26.56;38.71
79589;BME280;69067;51.930;4.492;2023-09-19T09:37:29;100801.47;;;26.55;39.00
79589;BME280;69067;51.930;4.492;2023-09-19T09:39:58;100797.81;;;26.61;38.84
79589;BME280;69067;51.930;4.492;2023-09-19T09:42:44;100790.78;;;26.53;38.66
79589;BME280;69067;51.930;4.492;2023-09-19T09:45:17;100795.41;;;26.53;39.60
79589;BME280;69067;51.930;4.492;2023-09-19T09:48:03;100790.56;;;26.55;38.63
79589;BME280;69067;51.930;4.492;2023-09-19T09:50:46;100792.19;;;26.56;38.92
79589;BME280;69067;51.930;4.492;2023-09-19T09:53:29;100778.09;;;26.59;39.56
79589;BME280;69067;51.930;4.492;2023-09-19T09:56:08;100797.81;;;26.61;39.19
79589;BME280;69067;51.930;4.492;2023-09-19T10:01:13;100777.72;;;26.55;39.54
79589;BME280;69067;51.930;4.492;2023-09-19T10:03:42;100801.47;;;26.55;38.63
79589;BME280;69067;51.930;4.492;2023-09-19T10:06:19;100796.47;;;26.52;39.20
79589;BME280;69067;51.930;4.492;2023-09-19T10:09:17;100787.00;;;26.54;38.73
79589;BME280;69067;51.930;4.492;2023-09-19T10:12:07;100787.34;;;26.58;39.15
79589;BME280;69067;51.930;4.492;2023-09-19T10:14:38;100775.38;;;26.59;39.31
79589;BME280;69067;51.930;4.492;2023-09-19T10:17:05;100765.22;;;26.48;39.76
79589;BME280;69067;51.930;4.492;2023-09-19T10:19:43;100771.66;;;26.53;38.99
79589;BME280;69067;51.930;4.492;2023-09-19T10:22:14;100771.44;;;26.55;39.04
79589;BME280;69067;51.930;4.492;2023-09-19T10:24:47;100759.19;;;26.57;38.70
79589;BME280;69067;51.930;4.492;2023-09-19T10:27:20;100763.81;;;26.57;39.35
79589;BME280;69067;51.930;4.492;2023-09-19T10:29:49;100758.69;;;26.49;39.71
79589;BME280;69067;51.930;4.492;2023-09-19T10:32:22;100754.66;;;26.51;39.36
79589;BME280;69067;51.930;4.492;2023-09-19T10:34:49;100753.38;;;26.54;39.27
79589;BME280;69067;51.930;4.492;2023-09-19T10:37:21;100757.31;;;26.58;39.60
79589;BME280;69067;51.930;4.492;2023-09-19T10:39:54;100761.09;;;26.57;39.09
79589;BME280;69067;51.930;4.492;2023-09-19T10:42:25;100758.38;;;26.57;39.86
79589;BME280;69067;51.930;4.492;2023-09-19T10:44:54;100749.34;;;26.56;39.61
79589;BME280;69067;51.930;4.492;2023-09-19T10:47:26;100747.53;;;26.50;39.61
79589;BME280;69067;51.930;4.492;2023-09-19T10:49:52;100749.59;;;26.55;39.72
79589;BME280;69067;51.930;4.492;2023-09-19T10:52:24;100754.22;;;26.54;39.41
79589;BME280;69067;51.930;4.492;2023-09-19T10:54:53;100747.44;;;26.57;38.92
79589;BME280;69067;51.930;4.492;2023-09-19T10:57:24;100736.16;;;26.53;39.55
79589;BME280;69067;51.930;4.492;2023-09-19T11:00:09;100741.63;;;26.53;39.08
79589;BME280;69067;51.930;4.492;2023-09-19T11:03:19;100737.00;;;26.54;39.70
79589;BME280;69067;51.930;4.492;2023-09-19T11:06:17;100739.41;;;26.62;39.47
79589;BME280;69067;51.930;4.492;2023-09-19T11:09:01;100734.84;;;26.56;39.88
79589;BME280;69067;51.930;4.492;2023-09-19T11:30:52;100728.41;;;26.50;39.64
79589;BME280;69067;51.930;4.492;2023-09-19T11:33:28;100721.88;;;26.51;39.16
79589;BME280;69067;51.930;4.492;2023-09-19T11:36:07;100727.75;;;26.55;39.14
79589;BME280;69067;51.930;4.492;2023-09-19T11:43:45;100708.84;;;26.53;39.77
79589;BME280;69067;51.930;4.492;2023-09-19T11:46:12;100720.34;;;26.55;39.38
79589;BME280;69067;51.930;4.492;2023-09-19T11:48:43;100696.59;;;26.56;39.57
79589;BME280;69067;51.930;4.492;2023-09-19T11:53:54;100711.19;;;26.50;39.76
79589;BME280;69067;51.930;4.492;2023-09-19T11:56:22;100718.94;;;26.53;39.56
79589;BME280;69067;51.930;4.492;2023-09-19T11:58:53;100728.50;;;26.62;39.53
79589;BME280;69067;51.930;4.492;2023-09-19T12:01:30;100715.28;;;26.59;38.70
79589;BME280;69067;51.930;4.492;2023-09-19T12:03:58;100726.44;;;26.57;38.78
79589;BME280;69067;51.930;4.492;2023-09-19T12:06:26;100721.34;;;26.61;38.83
79589;BME280;69067;51.930;4.492;2023-09-19T12:08:55;100720.13;;;26.57;39.80
79589;BME280;69067;51.930;4.492;2023-09-19T12:11:29;100715.38;;;26.52;40.08
79589;BME280;69067;51.930;4.492;2023-09-19T12:14:02;100724.75;;;26.56;39.25
79589;BME280;69067;51.930;4.492;2023-09-19T12:16:29;100703.38;;;26.53;39.51
79589;BME280;69067;51.930;4.492;2023-09-19T12:19:18;100722.38;;;26.48;40.11
79589;BME280;69067;51.930;4.492;2023-09-19T12:22:03;100703.63;;;26.52;39.90
79589;BME280;69067;51.930;4.492;2023-09-19T12:24:34;100714.75;;;26.50;39.61
79589;BME280;69067;51.930;4.492;2023-09-19T12:27:05;100707.63;;;26.49;39.81
79589;BME280;69067;51.930;4.492;2023-09-19T12:29:45;100718.72;;;26.54;40.02
79589;BME280;69067;51.930;4.492;2023-09-19T12:32:17;100725.47;;;26.52;39.74
79589;BME280;69067;51.930;4.492;2023-09-19T12:34:51;100734.25;;;26.54;39.90
79589;BME280;69067;51.930;4.492;2023-09-19T12:37:18;100719.28;;;26.56;40.12
79589;BME280;69067;51.930;4.492;2023-09-19T12:40:15;100713.25;;;26.54;40.38
79589;BME280;69067;51.930;4.492;2023-09-19T12:42:48;100717.63;;;26.55;39.61
79589;BME280;69067;51.930;4.492;2023-09-19T12:45:15;100724.63;;;26.51;40.09
79589;BME280;69067;51.930;4.492;2023-09-19T12:51:17;100710.75;;;26.53;39.97
79589;BME280;69067;51.930;4.492;2023-09-19T12:54:07;100721.44;;;26.54;40.06
79589;BME280;69067;51.930;4.492;2023-09-19T12:56:39;100709.06;;;26.52;39.64
79589;BME280;69067;51.930;4.492;2023-09-19T12:59:12;100711.59;;;26.53;40.18
79589;BME280;69067;51.930;4.492;2023-09-19T13:01:42;100708.94;;;26.47;40.28
79589;BME280;69067;51.930;4.492;2023-09-19T13:04:20;100708.00;;;26.53;40.10
79589;BME280;69067;51.930;4.492;2023-09-19T13:06:54;100709.44;;;26.55;40.76
79589;BME280;69067;51.930;4.492;2023-09-19T13:09:22;100712.78;;;26.57;40.37
79589;BME280;69067;51.930;4.492;2023-09-19T13:11:53;100706.78;;;26.49;41.28
79589;BME280;69067;51.930;4.492;2023-09-19T13:14:29;100709.28;;;26.50;40.91
79589;BME280;69067;51.930;4.492;2023-09-19T13:16:58;100720.59;;;26.54;40.92
79589;BME280;69067;51.930;4.492;2023-09-19T13:19:35;100710.25;;;26.56;40.96
79589;BME280;69067;51.930;4.492;2023-09-19T13:22:01;100710.03;;;26.57;40.55
79589;BME280;69067;51.930;4.492;2023-09-19T13:24:27;100697.94;;;26.53;40.97
79589;BME280;69067;51.930;4.492;2023-09-19T13:26:56;100698.28;;;26.57;40.69
79589;BME280;69067;51.930;4.492;2023-09-19T13:29:22;100697.44;;;26.56;40.78
79589;BME280;69067;51.930;4.492;2023-09-19T13:31:52;100692.59;;;26.58;40.90
79589;BME280;69067;51.930;4.492;2023-09-19T13:34:19;100699.94;;;26.58;40.64
79589;BME280;69067;51.930;4.492;2023-09-19T13:36:47;100711.25;;;26.61;40.87
79589;BME280;69067;51.930;4.492;2023-09-19T13:39:16;100705.41;;;26.58;41.02
79589;BME280;69067;51.930;4.492;2023-09-19T13:41:47;100722.28;;;26.55;41.39
79589;BME280;69067;51.930;4.492;2023-09-19T13:44:13;100716.56;;;26.56;41.22
79589;BME280;69067;51.930;4.492;2023-09-19T13:46:39;100696.38;;;26.57;41.26
79589;BME280;69067;51.930;4.492;2023-09-19T13:49:06;100693.53;;;26.52;40.81
79589;BME280;69067;51.930;4.492;2023-09-19T13:51:32;100689.13;;;26.51;41.30